sensor_id;sensor_type;location;lat;lon;timestamp;temperature;humidity
70676;DHT22;59069;52.242;20.900;2023-08-06T00:01:11;19.67;90.99
70676;DHT22;59069;52.242;20.900;2023-08-06T00:03:37;19.65;91.07
70676;DHT22;59069;52.242;20.900;2023-08-06T00:06:04;19.65;91.16
70676;DHT22;59069;52.242;20.900;2023-08-06T00:08:29;19.63;91.20
70676;DHT22;59069;52.242;20.900;2023-08-06T00:10:55;19.63;91.18
70676;DHT22;59069;52.242;20.900;2023-08-06T00:13:20;19.61;91.13
70676;DHT22;59069;52.242;20.900;2023-08-06T00:15:45;19.55;91.18
70676;DHT22;59069;52.242;20.900;2023-08-06T00:18:11;19.53;91.25
70676;DHT22;59069;52.242;20.900;2023-08-06T00:20:39;19.49;91.36
70676;DHT22;59069;52.242;20.900;2023-08-06T00:23:04;19.43;91.47
70676;DHT22;59069;52.242;20.900;2023-08-06T00:25:29;19.37;91.60
70676;DHT22;59069;52.242;20.900;2023-08-06T00:27:55;19.30;91.84
70676;DHT22;59069;52.242;20.900;2023-08-06T00:30:21;19.27;92.04
70676;DHT22;59069;52.242;20.900;2023-08-06T00:32:46;19.23;92.18
70676;DHT22;59069;52.242;20.900;2023-08-06T00:35:12;19.19;92.30
70676;DHT22;59069;52.242;20.900;2023-08-06T00:37:38;19.14;92.43
70676;DHT22;59069;52.242;20.900;2023-08-06T00:40:05;19.13;92.54
70676;DHT22;59069;52.242;20.900;2023-08-06T00:42:31;19.10;92.63
70676;DHT22;59069;52.242;20.900;2023-08-06T00:44:56;19.12;92.77
70676;DHT22;59069;52.242;20.900;2023-08-06T00:47:22;19.09;92.86
70676;DHT22;59069;52.242;20.900;2023-08-06T00:49:47;19.10;92.88
70676;DHT22;59069;52.242;20.900;2023-08-06T00:52:13;19.07;93.01
70676;DHT22;59069;52.242;20.900;2023-08-06T00:54:39;19.07;93.01
70676;DHT22;59069;52.242;20.900;2023-08-06T00:57:04;19.09;93.00
70676;DHT22;59069;52.242;20.900;2023-08-06T00:59:32;19.09;93.02
70676;DHT22;59069;52.242;20.900;2023-08-06T01:01:57;19.09;92.99
70676;DHT22;59069;52.242;20.900;2023-08-06T01:04:23;19.09;93.06
70676;DHT22;59069;52.242;20.900;2023-08-06T01:06:55;19.13;92.94
70676;DHT22;59069;52.242;20.900;2023-08-06T01:09:41;19.12;92.90
70676;DHT22;59069;52.242;20.900;2023-08-06T01:12:19;19.14;92.91
70676;DHT22;59069;52.242;20.900;2023-08-06T01:17:21;19.19;92.85
70676;DHT22;59069;52.242;20.900;2023-08-06T01:19:48;19.20;92.88
70676;DHT22;59069;52.242;20.900;2023-08-06T01:22:13;19.23;92.81
70676;DHT22;59069;52.242;20.900;2023-08-06T01:24:48;19.20;92.77
70676;DHT22;59069;52.242;20.900;2023-08-06T01:27:26;19.22;92.74
70676;DHT22;59069;52.242;20.900;2023-08-06T01:30:03;19.23;92.86
70676;DHT22;59069;52.242;20.900;2023-08-06T01:32:32;19.22;92.88
70676;DHT22;59069;52.242;20.900;2023-08-06T01:34:59;19.24;92.86
70676;DHT22;59069;52.242;20.900;2023-08-06T01:37:25;19.23;92.86
70676;DHT22;59069;52.242;20.900;2023-08-06T01:39:51;19.24;92.85
70676;DHT22;59069;52.242;20.900;2023-08-06T01:42:16;19.24;92.87
70676;DHT22;59069;52.242;20.900;2023-08-06T01:44:42;19.24;92.83
70676;DHT22;59069;52.242;20.900;2023-08-06T01:47:07;19.23;92.74
70676;DHT22;59069;52.242;20.900;2023-08-06T01:49:33;19.26;92.76
70676;DHT22;59069;52.242;20.900;2023-08-06T01:51:58;19.30;92.81
70676;DHT22;59069;52.242;20.900;2023-08-06T01:54:23;19.31;92.77
70676;DHT22;59069;52.242;20.900;2023-08-06T01:56:49;19.31;92.74
70676;DHT22;59069;52.242;20.900;2023-08-06T01:59:14;19.34;92.71
70676;DHT22;59069;52.242;20.900;2023-08-06T02:01:39;19.33;92.72
70676;DHT22;59069;52.242;20.900;2023-08-06T02:04:05;19.33;92.71
70676;DHT22;59069;52.242;20.900;2023-08-06T02:06:30;19.33;92.67
70676;DHT22;59069;52.242;20.900;2023-08-06T02:08:55;19.33;92.61
70676;DHT22;59069;52.242;20.900;2023-08-06T02:11:21;19.34;92.61
70676;DHT22;59069;52.242;20.900;2023-08-06T02:13:46;19.37;92.65
70676;DHT22;59069;52.242;20.900;2023-08-06T02:16:12;19.34;92.61
70676;DHT22;59069;52.242;20.900;2023-08-06T02:18:37;19.37;92.67
70676;DHT22;59069;52.242;20.900;2023-08-06T02:21:02;19.37;92.72
70676;DHT22;59069;52.242;20.900;2023-08-06T02:23:28;19.38;92.66
70676;DHT22;59069;52.242;20.900;2023-08-06T02:26:01;19.37;92.67
70676;DHT22;59069;52.242;20.900;2023-08-06T02:28:26;19.37;92.68
70676;DHT22;59069;52.242;20.900;2023-08-06T02:30:52;19.41;92.68
70676;DHT22;59069;52.242;20.900;2023-08-06T02:33:17;19.40;92.69
70676;DHT22;59069;52.242;20.900;2023-08-06T02:35:43;19.44;92.73
70676;DHT22;59069;52.242;20.900;2023-08-06T02:38:08;19.44;92.67
70676;DHT22;59069;52.242;20.900;2023-08-06T02:40:33;19.50;92.68
70676;DHT22;59069;52.242;20.900;2023-08-06T02:42:59;19.50;92.62
70676;DHT22;59069;52.242;20.900;2023-08-06T02:45:24;19.51;92.58
70676;DHT22;59069;52.242;20.900;2023-08-06T02:47:50;19.51;92.61
70676;DHT22;59069;52.242;20.900;2023-08-06T02:50:15;19.51;92.59
70676;DHT22;59069;52.242;20.900;2023-08-06T02:52:40;19.54;92.58
70676;DHT22;59069;52.242;20.900;2023-08-06T02:55:07;19.54;92.56
70676;DHT22;59069;52.242;20.900;2023-08-06T02:57:32;19.55;92.52
70676;DHT22;59069;52.242;20.900;2023-08-06T02:59:57;19.57;92.52
70676;DHT22;59069;52.242;20.900;2023-08-06T03:02:23;19.57;92.51
70676;DHT22;59069;52.242;20.900;2023-08-06T03:04:48;19.61;92.59
70676;DHT22;59069;52.242;20.900;2023-08-06T03:07:13;19.58;92.55
70676;DHT22;59069;52.242;20.900;2023-08-06T03:09:39;19.58;92.53
70676;DHT22;59069;52.242;20.900;2023-08-06T03:12:05;19.61;92.59
70676;DHT22;59069;52.242;20.900;2023-08-06T03:14:30;19.57;92.60
70676;DHT22;59069;52.242;20.900;2023-08-06T03:16:55;19.60;92.55
70676;DHT22;59069;52.242;20.900;2023-08-06T03:19:21;19.64;92.57
70676;DHT22;59069;52.242;20.900;2023-08-06T03:21:46;19.63;92.55
70676;DHT22;59069;52.242;20.900;2023-08-06T03:24:13;19.63;92.55
70676;DHT22;59069;52.242;20.900;2023-08-06T03:26:39;19.68;92.58
70676;DHT22;59069;52.242;20.900;2023-08-06T03:29:04;19.64;92.56
70676;DHT22;59069;52.242;20.900;2023-08-06T03:31:29;19.64;92.61
70676;DHT22;59069;52.242;20.900;2023-08-06T03:33:55;19.68;92.57
70676;DHT22;59069;52.242;20.900;2023-08-06T03:36:20;19.68;92.61
70676;DHT22;59069;52.242;20.900;2023-08-06T03:38:46;19.70;92.56
70676;DHT22;59069;52.242;20.900;2023-08-06T03:41:11;19.73;92.56
70676;DHT22;59069;52.242;20.900;2023-08-06T03:43:36;19.73;92.55
70676;DHT22;59069;52.242;20.900;2023-08-06T03:46:02;19.73;92.60
70676;DHT22;59069;52.242;20.900;2023-08-06T03:48:27;19.73;92.64
70676;DHT22;59069;52.242;20.900;2023-08-06T03:50:52;19.73;92.61
70676;DHT22;59069;52.242;20.900;2023-08-06T03:53:18;19.77;92.62
70676;DHT22;59069;52.242;20.900;2023-08-06T03:55:43;19.77;92.64
70676;DHT22;59069;52.242;20.900;2023-08-06T03:58:09;19.77;92.68
70676;DHT22;59069;52.242;20.900;2023-08-06T04:00:34;19.81;92.70
70676;DHT22;59069;52.242;20.900;2023-08-06T04:02:59;19.78;92.68
70676;DHT22;59069;52.242;20.900;2023-08-06T04:05:25;19.79;92.70
70676;DHT22;59069;52.242;20.900;2023-08-06T04:07:50;19.84;92.75
70676;DHT22;59069;52.242;20.900;2023-08-06T04:10:15;19.85;92.67
70676;DHT22;59069;52.242;20.900;2023-08-06T04:12:41;19.85;92.70
70676;DHT22;59069;52.242;20.900;2023-08-06T04:15:07;19.86;92.61
70676;DHT22;59069;52.242;20.900;2023-08-06T04:17:32;19.91;92.70
70676;DHT22;59069;52.242;20.900;2023-08-06T04:19:58;19.91;92.75
70676;DHT22;59069;52.242;20.900;2023-08-06T04:22:27;19.92;92.71
70676;DHT22;59069;52.242;20.900;2023-08-06T04:24:52;19.96;92.69
70676;DHT22;59069;52.242;20.900;2023-08-06T04:27:19;19.99;92.66
70676;DHT22;59069;52.242;20.900;2023-08-06T04:29:44;20.04;92.69
70676;DHT22;59069;52.242;20.900;2023-08-06T04:32:10;20.02;92.57
70676;DHT22;59069;52.242;20.900;2023-08-06T04:34:36;20.05;92.46
70676;DHT22;59069;52.242;20.900;2023-08-06T04:37:02;20.09;92.44
70676;DHT22;59069;52.242;20.900;2023-08-06T04:39:28;20.11;92.46
70676;DHT22;59069;52.242;20.900;2023-08-06T04:41:55;20.12;92.36
70676;DHT22;59069;52.242;20.900;2023-08-06T04:44:21;20.13;92.37
70676;DHT22;59069;52.242;20.900;2023-08-06T04:46:46;20.16;92.42
70676;DHT22;59069;52.242;20.900;2023-08-06T04:49:11;20.22;92.37
70676;DHT22;59069;52.242;20.900;2023-08-06T04:51:37;20.25;92.31
70676;DHT22;59069;52.242;20.900;2023-08-06T04:54:02;20.32;92.26
70676;DHT22;59069;52.242;20.900;2023-08-06T04:56:28;20.35;92.21
70676;DHT22;59069;52.242;20.900;2023-08-06T04:58:53;20.37;92.08
70676;DHT22;59069;52.242;20.900;2023-08-06T05:01:18;20.46;92.00
70676;DHT22;59069;52.242;20.900;2023-08-06T05:03:44;20.52;91.83
70676;DHT22;59069;52.242;20.900;2023-08-06T05:06:09;20.56;91.73
70676;DHT22;59069;52.242;20.900;2023-08-06T05:08:35;20.60;91.69
70676;DHT22;59069;52.242;20.900;2023-08-06T05:11:01;20.67;91.45
70676;DHT22;59069;52.242;20.900;2023-08-06T05:13:26;20.73;91.41
70676;DHT22;59069;52.242;20.900;2023-08-06T05:15:53;20.83;91.21
70676;DHT22;59069;52.242;20.900;2023-08-06T05:18:19;20.87;91.11
70676;DHT22;59069;52.242;20.900;2023-08-06T05:20:44;20.94;90.79
70676;DHT22;59069;52.242;20.900;2023-08-06T05:23:09;21.00;90.66
70676;DHT22;59069;52.242;20.900;2023-08-06T05:25:35;21.08;90.53
70676;DHT22;59069;52.242;20.900;2023-08-06T05:28:01;21.18;90.48
70676;DHT22;59069;52.242;20.900;2023-08-06T05:30:27;21.27;90.09
70676;DHT22;59069;52.242;20.900;2023-08-06T05:32:53;21.35;89.98
70676;DHT22;59069;52.242;20.900;2023-08-06T05:35:18;21.44;89.67
70676;DHT22;59069;52.242;20.900;2023-08-06T05:37:43;21.46;89.13
70676;DHT22;59069;52.242;20.900;2023-08-06T05:40:09;21.52;88.98
70676;DHT22;59069;52.242;20.900;2023-08-06T05:42:34;21.59;88.74
70676;DHT22;59069;52.242;20.900;2023-08-06T05:44:59;21.67;88.45
70676;DHT22;59069;52.242;20.900;2023-08-06T05:47:25;21.71;88.20
70676;DHT22;59069;52.242;20.900;2023-08-06T05:49:50;21.81;87.83
70676;DHT22;59069;52.242;20.900;2023-08-06T05:52:16;21.89;87.45
70676;DHT22;59069;52.242;20.900;2023-08-06T05:54:41;21.92;87.11
70676;DHT22;59069;52.242;20.900;2023-08-06T05:57:06;22.00;86.81
70676;DHT22;59069;52.242;20.900;2023-08-06T05:59:32;22.09;86.41
70676;DHT22;59069;52.242;20.900;2023-08-06T06:01:57;22.14;85.94
70676;DHT22;59069;52.242;20.900;2023-08-06T06:04:23;22.20;85.75
70676;DHT22;59069;52.242;20.900;2023-08-06T06:06:48;22.29;85.48
70676;DHT22;59069;52.242;20.900;2023-08-06T06:09:13;22.40;85.00
70676;DHT22;59069;52.242;20.900;2023-08-06T06:11:39;22.48;84.36
70676;DHT22;59069;52.242;20.900;2023-08-06T06:14:04;22.54;83.78
70676;DHT22;59069;52.242;20.900;2023-08-06T06:16:29;22.63;83.27
70676;DHT22;59069;52.242;20.900;2023-08-06T06:18:55;22.68;82.87
70676;DHT22;59069;52.242;20.900;2023-08-06T06:21:22;22.77;82.53
70676;DHT22;59069;52.242;20.900;2023-08-06T06:23:48;22.87;82.08
70676;DHT22;59069;52.242;20.900;2023-08-06T06:26:13;22.95;81.71
70676;DHT22;59069;52.242;20.900;2023-08-06T06:28:38;23.04;81.28
70676;DHT22;59069;52.242;20.900;2023-08-06T06:31:04;23.09;80.99
70676;DHT22;59069;52.242;20.900;2023-08-06T06:33:29;23.18;80.88
70676;DHT22;59069;52.242;20.900;2023-08-06T06:35:54;23.30;80.76
70676;DHT22;59069;52.242;20.900;2023-08-06T06:38:20;23.39;80.48
70676;DHT22;59069;52.242;20.900;2023-08-06T06:40:55;23.49;79.80
70676;DHT22;59069;52.242;20.900;2023-08-06T06:43:21;23.56;79.42
70676;DHT22;59069;52.242;20.900;2023-08-06T06:45:46;23.69;79.68
70676;DHT22;59069;52.242;20.900;2023-08-06T06:48:11;23.86;78.93
70676;DHT22;59069;52.242;20.900;2023-08-06T06:50:37;23.94;78.01
70676;DHT22;59069;52.242;20.900;2023-08-06T06:53:04;24.00;77.25
70676;DHT22;59069;52.242;20.900;2023-08-06T06:55:29;24.11;76.99
70676;DHT22;59069;52.242;20.900;2023-08-06T06:57:55;24.17;76.23
70676;DHT22;59069;52.242;20.900;2023-08-06T07:00:20;24.28;75.60
70676;DHT22;59069;52.242;20.900;2023-08-06T07:02:45;24.38;75.45
70676;DHT22;59069;52.242;20.900;2023-08-06T07:05:11;24.52;75.14
70676;DHT22;59069;52.242;20.900;2023-08-06T07:07:36;24.64;74.49
70676;DHT22;59069;52.242;20.900;2023-08-06T07:10:02;24.79;74.19
70676;DHT22;59069;52.242;20.900;2023-08-06T07:12:28;24.93;73.19
70676;DHT22;59069;52.242;20.900;2023-08-06T07:14:53;25.00;72.59
70676;DHT22;59069;52.242;20.900;2023-08-06T07:17:18;25.06;71.69
70676;DHT22;59069;52.242;20.900;2023-08-06T07:19:44;25.15;71.47
70676;DHT22;59069;52.242;20.900;2023-08-06T07:22:09;25.13;70.87
70676;DHT22;59069;52.242;20.900;2023-08-06T07:24:34;25.13;70.83
70676;DHT22;59069;52.242;20.900;2023-08-06T07:27:00;25.22;71.21
70676;DHT22;59069;52.242;20.900;2023-08-06T07:29:26;25.31;70.79
70676;DHT22;59069;52.242;20.900;2023-08-06T07:31:51;25.40;70.42
70676;DHT22;59069;52.242;20.900;2023-08-06T07:34:17;25.40;70.23
70676;DHT22;59069;52.242;20.900;2023-08-06T07:36:46;25.46;70.33
70676;DHT22;59069;52.242;20.900;2023-08-06T07:39:11;25.61;70.16
70676;DHT22;59069;52.242;20.900;2023-08-06T07:41:36;25.77;69.51
70676;DHT22;59069;52.242;20.900;2023-08-06T07:44:02;25.81;68.98
70676;DHT22;59069;52.242;20.900;2023-08-06T07:46:27;25.85;68.51
70676;DHT22;59069;52.242;20.900;2023-08-06T07:48:53;25.94;68.54
70676;DHT22;59069;52.242;20.900;2023-08-06T07:51:18;25.97;68.11
70676;DHT22;59069;52.242;20.900;2023-08-06T07:53:44;25.95;67.59
70676;DHT22;59069;52.242;20.900;2023-08-06T07:56:10;25.98;67.92
70676;DHT22;59069;52.242;20.900;2023-08-06T07:58:35;26.06;68.21
70676;DHT22;59069;52.242;20.900;2023-08-06T08:01:01;26.14;68.10
70676;DHT22;59069;52.242;20.900;2023-08-06T08:03:26;26.28;67.57
70676;DHT22;59069;52.242;20.900;2023-08-06T08:05:54;26.31;67.19
70676;DHT22;59069;52.242;20.900;2023-08-06T08:08:22;26.41;67.50
70676;DHT22;59069;52.242;20.900;2023-08-06T08:10:48;26.62;68.34
70676;DHT22;59069;52.242;20.900;2023-08-06T08:13:13;26.80;66.88
70676;DHT22;59069;52.242;20.900;2023-08-06T08:15:38;27.03;66.22
70676;DHT22;59069;52.242;20.900;2023-08-06T08:18:04;27.20;65.49
70676;DHT22;59069;52.242;20.900;2023-08-06T08:20:29;27.34;64.95
70676;DHT22;59069;52.242;20.900;2023-08-06T08:22:57;27.47;64.33
70676;DHT22;59069;52.242;20.900;2023-08-06T08:25:23;27.57;63.81
70676;DHT22;59069;52.242;20.900;2023-08-06T08:27:48;27.66;63.47
70676;DHT22;59069;52.242;20.900;2023-08-06T08:30:14;27.78;63.08
70676;DHT22;59069;52.242;20.900;2023-08-06T08:32:39;27.91;62.87
70676;DHT22;59069;52.242;20.900;2023-08-06T08:35:04;27.95;62.07
70676;DHT22;59069;52.242;20.900;2023-08-06T08:37:30;28.02;61.70
70676;DHT22;59069;52.242;20.900;2023-08-06T08:39:55;28.08;62.04
70676;DHT22;59069;52.242;20.900;2023-08-06T08:42:21;28.23;62.39
70676;DHT22;59069;52.242;20.900;2023-08-06T08:44:46;28.36;62.01
70676;DHT22;59069;52.242;20.900;2023-08-06T08:47:12;28.47;60.68
70676;DHT22;59069;52.242;20.900;2023-08-06T08:49:38;28.53;60.49
70676;DHT22;59069;52.242;20.900;2023-08-06T08:52:04;28.56;60.23
70676;DHT22;59069;52.242;20.900;2023-08-06T08:54:36;28.63;60.37
70676;DHT22;59069;52.242;20.900;2023-08-06T08:57:03;28.63;59.73
70676;DHT22;59069;52.242;20.900;2023-08-06T08:59:29;28.63;59.64
70676;DHT22;59069;52.242;20.900;2023-08-06T09:01:55;28.67;60.29
70676;DHT22;59069;52.242;20.900;2023-08-06T09:04:22;28.87;61.05
70676;DHT22;59069;52.242;20.900;2023-08-06T09:06:50;28.95;58.90
70676;DHT22;59069;52.242;20.900;2023-08-06T09:09:22;29.02;59.57
70676;DHT22;59069;52.242;20.900;2023-08-06T09:11:51;29.10;57.43
70676;DHT22;59069;52.242;20.900;2023-08-06T09:14:16;29.11;58.62
70676;DHT22;59069;52.242;20.900;2023-08-06T09:16:43;29.28;59.44
70676;DHT22;59069;52.242;20.900;2023-08-06T09:19:12;29.49;58.21
70676;DHT22;59069;52.242;20.900;2023-08-06T09:21:42;29.76;59.46
70676;DHT22;59069;52.242;20.900;2023-08-06T09:24:11;30.09;56.64
70676;DHT22;59069;52.242;20.900;2023-08-06T09:26:37;30.23;54.10
70676;DHT22;59069;52.242;20.900;2023-08-06T09:29:07;30.27;54.71
70676;DHT22;59069;52.242;20.900;2023-08-06T09:34:21;30.55;55.19
70676;DHT22;59069;52.242;20.900;2023-08-06T09:36:49;30.63;53.05
70676;DHT22;59069;52.242;20.900;2023-08-06T09:39:29;30.51;52.33
70676;DHT22;59069;52.242;20.900;2023-08-06T09:41:56;30.28;52.80
70676;DHT22;59069;52.242;20.900;2023-08-06T09:44:22;30.16;54.07
70676;DHT22;59069;52.242;20.900;2023-08-06T09:49:39;30.18;56.07
70676;DHT22;59069;52.242;20.900;2023-08-06T09:52:10;30.25;54.08
70676;DHT22;59069;52.242;20.900;2023-08-06T09:54:37;30.27;53.75
70676;DHT22;59069;52.242;20.900;2023-08-06T09:57:02;30.25;53.65
70676;DHT22;59069;52.242;20.900;2023-08-06T09:59:29;30.28;54.35
70676;DHT22;59069;52.242;20.900;2023-08-06T10:01:55;30.35;53.20
70676;DHT22;59069;52.242;20.900;2023-08-06T10:04:21;30.40;53.51
70676;DHT22;59069;52.242;20.900;2023-08-06T10:06:47;30.40;53.08
70676;DHT22;59069;52.242;20.900;2023-08-06T10:09:13;30.25;52.88
70676;DHT22;59069;52.242;20.900;2023-08-06T10:11:39;30.23;54.12
70676;DHT22;59069;52.242;20.900;2023-08-06T10:14:13;30.31;54.01
70676;DHT22;59069;52.242;20.900;2023-08-06T10:16:40;30.45;52.72
70676;DHT22;59069;52.242;20.900;2023-08-06T10:19:07;30.49;52.44
70676;DHT22;59069;52.242;20.900;2023-08-06T10:21:34;30.45;52.19
70676;DHT22;59069;52.242;20.900;2023-08-06T10:23:59;30.51;52.63
70676;DHT22;59069;52.242;20.900;2023-08-06T10:26:30;30.51;51.84
70676;DHT22;59069;52.242;20.900;2023-08-06T10:28:55;30.38;51.53
70676;DHT22;59069;52.242;20.900;2023-08-06T10:31:54;30.27;52.85
70676;DHT22;59069;52.242;20.900;2023-08-06T10:34:20;30.24;52.18
70676;DHT22;59069;52.242;20.900;2023-08-06T10:36:46;30.14;51.99
70676;DHT22;59069;52.242;20.900;2023-08-06T10:39:14;29.97;52.37
70676;DHT22;59069;52.242;20.900;2023-08-06T10:41:42;30.00;53.24
70676;DHT22;59069;52.242;20.900;2023-08-06T10:44:09;29.99;52.22
70676;DHT22;59069;52.242;20.900;2023-08-06T10:46:35;30.03;52.81
70676;DHT22;59069;52.242;20.900;2023-08-06T10:49:02;30.02;52.74
70676;DHT22;59069;52.242;20.900;2023-08-06T10:51:27;29.99;52.84
70676;DHT22;59069;52.242;20.900;2023-08-06T10:53:53;29.83;52.64
70676;DHT22;59069;52.242;20.900;2023-08-06T10:56:23;29.59;52.75
70676;DHT22;59069;52.242;20.900;2023-08-06T10:58:50;29.42;53.25
70676;DHT22;59069;52.242;20.900;2023-08-06T11:01:16;29.39;54.05
70676;DHT22;59069;52.242;20.900;2023-08-06T11:03:44;29.35;53.74
70676;DHT22;59069;52.242;20.900;2023-08-06T11:06:10;29.26;53.84
70676;DHT22;59069;52.242;20.900;2023-08-06T11:08:37;29.19;54.15
70676;DHT22;59069;52.242;20.900;2023-08-06T11:11:14;29.19;54.26
70676;DHT22;59069;52.242;20.900;2023-08-06T11:13:43;29.14;53.97
70676;DHT22;59069;52.242;20.900;2023-08-06T11:16:11;29.12;54.01
70676;DHT22;59069;52.242;20.900;2023-08-06T11:18:36;29.22;54.58
70676;DHT22;59069;52.242;20.900;2023-08-06T11:21:02;29.42;54.80
70676;DHT22;59069;52.242;20.900;2023-08-06T11:23:28;29.73;53.56
70676;DHT22;59069;52.242;20.900;2023-08-06T11:25:55;29.84;52.36
70676;DHT22;59069;52.242;20.900;2023-08-06T11:28:20;30.16;53.51
70676;DHT22;59069;52.242;20.900;2023-08-06T11:30:49;30.78;52.34
70676;DHT22;59069;52.242;20.900;2023-08-06T11:33:28;31.05;49.28
70676;DHT22;59069;52.242;20.900;2023-08-06T11:35:55;31.02;48.64
70676;DHT22;59069;52.242;20.900;2023-08-06T11:38:21;31.15;51.31
70676;DHT22;59069;52.242;20.900;2023-08-06T11:40:47;31.74;50.71
70676;DHT22;59069;52.242;20.900;2023-08-06T11:43:13;32.32;47.12
70676;DHT22;59069;52.242;20.900;2023-08-06T11:45:39;32.98;46.83
70676;DHT22;59069;52.242;20.900;2023-08-06T11:48:06;33.49;44.49
70676;DHT22;59069;52.242;20.900;2023-08-06T11:50:36;34.04;44.00
70676;DHT22;59069;52.242;20.900;2023-08-06T11:53:03;34.57;43.22
70676;DHT22;59069;52.242;20.900;2023-08-06T11:55:28;35.04;40.93
70676;DHT22;59069;52.242;20.900;2023-08-06T11:57:54;35.26;39.51
70676;DHT22;59069;52.242;20.900;2023-08-06T12:00:23;35.43;38.35
70676;DHT22;59069;52.242;20.900;2023-08-06T12:02:49;35.54;39.26
70676;DHT22;59069;52.242;20.900;2023-08-06T12:05:19;35.73;38.97
70676;DHT22;59069;52.242;20.900;2023-08-06T12:07:53;35.62;38.60
70676;DHT22;59069;52.242;20.900;2023-08-06T12:10:19;35.18;38.00
70676;DHT22;59069;52.242;20.900;2023-08-06T12:12:45;34.62;39.14
70676;DHT22;59069;52.242;20.900;2023-08-06T12:15:11;33.95;39.62
70676;DHT22;59069;52.242;20.900;2023-08-06T12:17:36;33.40;40.44
70676;DHT22;59069;52.242;20.900;2023-08-06T12:20:03;32.82;41.02
70676;DHT22;59069;52.242;20.900;2023-08-06T12:22:30;32.39;41.87
70676;DHT22;59069;52.242;20.900;2023-08-06T12:25:00;31.97;42.44
70676;DHT22;59069;52.242;20.900;2023-08-06T12:27:25;31.57;43.01
70676;DHT22;59069;52.242;20.900;2023-08-06T12:29:51;31.19;44.10
70676;DHT22;59069;52.242;20.900;2023-08-06T12:32:16;30.89;45.04
70676;DHT22;59069;52.242;20.900;2023-08-06T12:34:42;30.67;45.76
70676;DHT22;59069;52.242;20.900;2023-08-06T12:37:08;30.43;46.14
70676;DHT22;59069;52.242;20.900;2023-08-06T12:39:34;30.18;46.58
70676;DHT22;59069;52.242;20.900;2023-08-06T12:42:05;30.00;47.09
70676;DHT22;59069;52.242;20.900;2023-08-06T12:44:31;29.77;47.65
70676;DHT22;59069;52.242;20.900;2023-08-06T12:46:57;29.61;48.05
70676;DHT22;59069;52.242;20.900;2023-08-06T12:49:23;29.43;48.49
70676;DHT22;59069;52.242;20.900;2023-08-06T12:51:50;29.29;48.97
70676;DHT22;59069;52.242;20.900;2023-08-06T12:54:21;29.25;49.38
70676;DHT22;59069;52.242;20.900;2023-08-06T12:56:48;29.28;49.51
70676;DHT22;59069;52.242;20.900;2023-08-06T12:59:15;29.35;49.33
70676;DHT22;59069;52.242;20.900;2023-08-06T13:01:41;29.34;49.17
70676;DHT22;59069;52.242;20.900;2023-08-06T13:04:07;29.29;49.34
70676;DHT22;59069;52.242;20.900;2023-08-06T13:06:32;29.26;49.52
70676;DHT22;59069;52.242;20.900;2023-08-06T13:09:11;29.21;49.86
70676;DHT22;59069;52.242;20.900;2023-08-06T13:11:38;29.21;49.83
70676;DHT22;59069;52.242;20.900;2023-08-06T13:14:13;29.18;50.05
70676;DHT22;59069;52.242;20.900;2023-08-06T13:16:40;29.31;50.03
70676;DHT22;59069;52.242;20.900;2023-08-06T13:19:06;29.51;49.80
70676;DHT22;59069;52.242;20.900;2023-08-06T13:21:59;29.72;49.02
70676;DHT22;59069;52.242;20.900;2023-08-06T13:24:25;31.09;51.35
70676;DHT22;59069;52.242;20.900;2023-08-06T13:26:52;33.09;45.23
70676;DHT22;59069;52.242;20.900;2023-08-06T13:29:17;34.26;41.89
70676;DHT22;59069;52.242;20.900;2023-08-06T13:31:43;35.48;40.82
70676;DHT22;59069;52.242;20.900;2023-08-06T13:34:08;37.06;38.17
70676;DHT22;59069;52.242;20.900;2023-08-06T13:36:34;38.04;34.48
70676;DHT22;59069;52.242;20.900;2023-08-06T13:38:59;37.84;34.41
70676;DHT22;59069;52.242;20.900;2023-08-06T13:41:25;36.76;34.78
70676;DHT22;59069;52.242;20.900;2023-08-06T13:43:50;35.57;36.84
70676;DHT22;59069;52.242;20.900;2023-08-06T13:46:18;34.95;38.92
70676;DHT22;59069;52.242;20.900;2023-08-06T13:48:46;33.82;39.99
70676;DHT22;59069;52.242;20.900;2023-08-06T13:51:12;33.13;42.40
70676;DHT22;59069;52.242;20.900;2023-08-06T13:53:38;32.38;43.65
70676;DHT22;59069;52.242;20.900;2023-08-06T13:56:05;31.87;45.06
70676;DHT22;59069;52.242;20.900;2023-08-06T13:58:31;31.47;46.23
70676;DHT22;59069;52.242;20.900;2023-08-06T14:00:57;30.96;47.31
70676;DHT22;59069;52.242;20.900;2023-08-06T14:03:23;30.61;48.31
70676;DHT22;59069;52.242;20.900;2023-08-06T14:05:48;30.27;49.26
70676;DHT22;59069;52.242;20.900;2023-08-06T14:08:14;29.99;50.26
70676;DHT22;59069;52.242;20.900;2023-08-06T14:10:40;30.03;51.36
70676;DHT22;59069;52.242;20.900;2023-08-06T14:13:05;30.91;52.18
70676;DHT22;59069;52.242;20.900;2023-08-06T14:15:31;32.04;49.08
70676;DHT22;59069;52.242;20.900;2023-08-06T14:17:56;32.92;45.24
70676;DHT22;59069;52.242;20.900;2023-08-06T14:20:21;33.05;42.64
70676;DHT22;59069;52.242;20.900;2023-08-06T14:22:47;32.54;42.26
70676;DHT22;59069;52.242;20.900;2023-08-06T14:25:12;31.96;43.63
70676;DHT22;59069;52.242;20.900;2023-08-06T14:27:38;31.25;45.11
70676;DHT22;59069;52.242;20.900;2023-08-06T14:30:06;30.67;47.00
70676;DHT22;59069;52.242;20.900;2023-08-06T14:32:32;30.12;48.50
70676;DHT22;59069;52.242;20.900;2023-08-06T14:34:57;29.72;49.62
70676;DHT22;59069;52.242;20.900;2023-08-06T14:37:24;29.41;50.10
70676;DHT22;59069;52.242;20.900;2023-08-06T14:39:49;29.16;50.74
70676;DHT22;59069;52.242;20.900;2023-08-06T14:42:15;28.95;51.31
70676;DHT22;59069;52.242;20.900;2023-08-06T14:44:40;28.87;51.84
70676;DHT22;59069;52.242;20.900;2023-08-06T14:47:06;28.93;52.78
70676;DHT22;59069;52.242;20.900;2023-08-06T14:49:31;29.08;52.86
70676;DHT22;59069;52.242;20.900;2023-08-06T14:51:57;29.15;53.02
70676;DHT22;59069;52.242;20.900;2023-08-06T14:54:25;29.10;53.28
70676;DHT22;59069;52.242;20.900;2023-08-06T14:56:51;29.08;54.54
70676;DHT22;59069;52.242;20.900;2023-08-06T14:59:16;29.14;54.95
70676;DHT22;59069;52.242;20.900;2023-08-06T15:01:42;29.16;54.47
70676;DHT22;59069;52.242;20.900;2023-08-06T15:04:07;29.14;54.16
70676;DHT22;59069;52.242;20.900;2023-08-06T15:06:32;29.04;54.18
70676;DHT22;59069;52.242;20.900;2023-08-06T15:08:58;28.94;54.09
70676;DHT22;59069;52.242;20.900;2023-08-06T15:11:26;28.80;54.24
70676;DHT22;59069;52.242;20.900;2023-08-06T15:13:51;28.68;54.67
70676;DHT22;59069;52.242;20.900;2023-08-06T15:16:17;28.65;54.70
70676;DHT22;59069;52.242;20.900;2023-08-06T15:18:42;28.71;54.20